createdAt,value
2022-12-16T00:01:15.355Z,97.40
2022-12-16T00:03:49.211Z,110.93
2022-12-16T00:06:22.507Z,102.23
2022-12-16T00:08:51.936Z,91.95
2022-12-16T00:11:21.060Z,93.93
2022-12-16T00:13:50.212Z,93.83
2022-12-16T00:16:21.137Z,91.93
2022-12-16T00:18:51.944Z,100.33
2022-12-16T00:21:28.195Z,91.55
2022-12-16T00:23:57.642Z,87.77
2022-12-16T00:26:26.364Z,85.93
2022-12-16T00:28:56.000Z,91.73
2022-12-16T00:31:24.823Z,87.00
2022-12-16T00:33:57.987Z,83.00
2022-12-16T00:36:29.996Z,87.55
2022-12-16T00:38:58.810Z,92.40
2022-12-16T00:41:27.530Z,84.20
2022-12-16T00:43:56.305Z,86.10
2022-12-16T00:46:25.401Z,89.93
2022-12-16T00:48:54.463Z,91.87
2022-12-16T00:51:24.224Z,86.40
2022-12-16T00:53:52.960Z,89.80
2022-12-16T00:56:23.296Z,88.70
2022-12-16T00:58:52.999Z,82.10
2022-12-16T01:01:23.814Z,76.97
2022-12-16T01:03:55.554Z,83.53
2022-12-16T01:06:24.374Z,76.53
2022-12-16T01:08:53.068Z,83.73
2022-12-16T01:11:23.945Z,79.80
2022-12-16T01:13:54.967Z,86.80
2022-12-16T01:16:24.515Z,76.77
2022-12-16T01:18:55.708Z,80.50
2022-12-16T01:21:24.520Z,81.00
2022-12-16T01:23:55.055Z,82.40
2022-12-16T01:26:24.365Z,79.83
2022-12-16T01:28:53.597Z,71.10
2022-12-16T01:31:24.766Z,78.80
2022-12-16T01:33:56.558Z,68.63
2022-12-16T01:36:26.177Z,75.67
2022-12-16T01:38:55.090Z,70.40
2022-12-16T01:41:24.056Z,78.27
2022-12-16T01:43:52.780Z,73.07
2022-12-16T01:46:24.869Z,73.80
2022-12-16T01:48:59.366Z,74.83
2022-12-16T01:51:33.365Z,69.80
2022-12-16T01:54:06.745Z,61.23
2022-12-16T01:56:37.527Z,72.87
2022-12-16T01:59:07.825Z,69.85
2022-12-16T02:01:37.604Z,59.93
2022-12-16T02:04:06.495Z,63.70
2022-12-16T02:06:35.220Z,70.83
2022-12-16T02:09:07.876Z,67.70
2022-12-16T02:11:55.814Z,75.33
2022-12-16T02:14:45.644Z,70.77
2022-12-16T02:17:20.984Z,70.73
2022-12-16T02:20:08.916Z,59.83
2022-12-16T02:22:51.686Z,68.83
2022-12-16T02:25:47.790Z,65.00
2022-12-16T02:28:32.482Z,60.83
2022-12-16T02:31:19.694Z,65.90
2022-12-16T02:33:59.058Z,61.67
2022-12-16T02:36:42.074Z,66.23
2022-12-16T02:39:18.944Z,70.40
2022-12-16T02:41:54.300Z,69.80
2022-12-16T02:44:33.969Z,71.40
2022-12-16T02:47:03.639Z,68.77
2022-12-16T02:49:54.533Z,63.70
2022-12-16T02:52:25.709Z,65.03
2022-12-16T02:54:59.412Z,65.47
2022-12-16T02:57:48.379Z,58.95
2022-12-16T03:00:20.560Z,67.53
2022-12-16T03:02:56.348Z,68.33
2022-12-16T03:05:30.943Z,67.30
2022-12-16T03:10:38.631Z,64.37
2022-12-16T03:13:14.793Z,65.57
2022-12-16T03:18:15.774Z,55.33
2022-12-16T03:20:50.656Z,55.13
2022-12-16T03:23:32.487Z,58.53
2022-12-16T03:26:08.752Z,47.73
2022-12-16T03:28:48.113Z,65.83
2022-12-16T03:31:26.677Z,64.40
2022-12-16T03:34:00.983Z,65.60
2022-12-16T03:36:34.931Z,71.33
2022-12-16T03:39:07.332Z,72.43
2022-12-16T03:41:36.678Z,64.03
2022-12-16T03:44:07.445Z,73.63
2022-12-16T03:46:36.356Z,66.93
2022-12-16T03:49:05.584Z,68.47
2022-12-16T03:51:34.492Z,63.40
2022-12-16T03:54:04.107Z,75.90
2022-12-16T03:56:33.059Z,67.13
2022-12-16T03:59:03.023Z,66.90
2022-12-16T04:01:32.174Z,64.93
2022-12-16T04:04:01.015Z,67.23
2022-12-16T04:06:29.879Z,73.90
2022-12-16T04:08:58.637Z,69.73
2022-12-16T04:11:45.612Z,68.87
2022-12-16T04:14:33.738Z,65.97
2022-12-16T04:17:33.524Z,76.90
2022-12-16T04:20:20.806Z,64.67
2022-12-16T04:23:08.747Z,61.10
2022-12-16T04:25:40.066Z,60.30
2022-12-16T04:28:11.527Z,69.47
2022-12-16T04:30:42.520Z,55.40
2022-12-16T04:33:33.362Z,63.80
2022-12-16T04:36:20.157Z,66.87
2022-12-16T04:39:07.177Z,67.13
2022-12-16T04:41:54.265Z,67.47
2022-12-16T04:44:41.783Z,75.63
2022-12-16T04:47:29.587Z,63.73
2022-12-16T04:50:19.652Z,74.13
2022-12-16T04:53:09.630Z,67.57
2022-12-16T04:56:03.890Z,68.90
2022-12-16T04:58:53.929Z,67.10
2022-12-16T05:01:41.152Z,65.23
2022-12-16T05:04:28.277Z,65.17
2022-12-16T05:07:15.363Z,69.57
2022-12-16T05:10:02.991Z,72.00
2022-12-16T05:12:51.131Z,55.23
2022-12-16T05:15:39.066Z,72.70
2022-12-16T05:18:35.001Z,62.63
2022-12-16T05:21:31.733Z,65.30
2022-12-16T05:24:19.431Z,68.57
2022-12-16T05:27:07.291Z,68.80
2022-12-16T05:29:54.835Z,62.90
2022-12-16T05:32:42.095Z,65.80
2022-12-16T05:35:29.874Z,68.23
2022-12-16T05:38:17.031Z,65.93
2022-12-16T05:41:12.357Z,69.77
2022-12-16T05:43:59.704Z,81.10
2022-12-16T05:46:47.412Z,74.07
2022-12-16T05:49:35.115Z,71.20
2022-12-16T05:52:24.459Z,69.23
2022-12-16T05:55:14.077Z,71.50
2022-12-16T05:58:01.551Z,73.83
2022-12-16T06:00:48.918Z,88.15
2022-12-16T06:03:37.249Z,79.23
2022-12-16T06:06:27.907Z,62.57
2022-12-16T06:09:15.675Z,82.27
2022-12-16T06:12:04.685Z,67.47
2022-12-16T06:14:52.190Z,67.13
2022-12-16T06:17:40.847Z,72.53
2022-12-16T06:20:30.324Z,71.23
2022-12-16T06:23:22.544Z,82.23
2022-12-16T06:26:12.566Z,82.37
2022-12-16T06:29:00.227Z,83.27
2022-12-16T06:31:47.638Z,74.87
2022-12-16T06:34:35.196Z,73.33
2022-12-16T06:37:22.208Z,78.17
2022-12-16T06:40:09.376Z,81.53
2022-12-16T06:42:59.403Z,85.73
2022-12-16T06:45:47.084Z,74.57
2022-12-16T06:48:48.754Z,81.63
2022-12-16T06:51:35.787Z,82.00
2022-12-16T06:54:23.481Z,84.30
2022-12-16T06:57:10.390Z,81.07
2022-12-16T06:59:56.830Z,64.10
2022-12-16T07:02:44.386Z,81.87
2022-12-16T07:05:31.930Z,79.93
2022-12-16T07:08:19.638Z,73.27
2022-12-16T07:11:16.752Z,76.87
2022-12-16T07:14:05.831Z,82.63
2022-12-16T07:16:53.309Z,75.37
2022-12-16T07:19:41.524Z,78.73
2022-12-16T07:22:29.228Z,83.17
2022-12-16T07:25:16.351Z,82.63
2022-12-16T07:28:10.711Z,76.70
2022-12-16T07:31:02.336Z,82.40
2022-12-16T07:33:49.664Z,78.93
2022-12-16T07:36:37.299Z,74.40
2022-12-16T07:39:27.437Z,72.27
2022-12-16T07:42:15.485Z,73.47
2022-12-16T07:45:02.472Z,73.37
2022-12-16T07:47:49.596Z,70.83
2022-12-16T07:50:37.655Z,91.07
2022-12-16T07:53:31.243Z,77.10
2022-12-16T07:56:18.826Z,72.67
2022-12-16T07:59:06.055Z,79.60
2022-12-16T08:01:53.747Z,100.47
2022-12-16T08:04:45.384Z,87.93
2022-12-16T08:07:33.129Z,115.67
2022-12-16T08:10:20.181Z,93.27
2022-12-16T08:13:07.826Z,80.10
2022-12-16T08:15:57.888Z,88.70
2022-12-16T08:18:45.098Z,82.77
2022-12-16T08:21:35.273Z,82.47
2022-12-16T08:24:25.466Z,82.47
2022-12-16T08:27:13.091Z,73.50
2022-12-16T08:30:00.963Z,78.33
2022-12-16T08:32:47.337Z,86.30
2022-12-16T08:35:34.651Z,85.67
2022-12-16T08:38:22.001Z,71.03
2022-12-16T08:41:09.811Z,88.53
2022-12-16T08:43:57.771Z,88.33
2022-12-16T08:46:45.489Z,76.47
2022-12-16T08:49:33.067Z,79.83
2022-12-16T08:52:20.754Z,82.27
2022-12-16T08:55:27.783Z,77.77
2022-12-16T08:58:16.563Z,80.40
2022-12-16T09:01:07.888Z,80.40
2022-12-16T09:03:56.023Z,81.37
2022-12-16T09:06:58.354Z,83.53
2022-12-16T09:09:46.169Z,82.13
2022-12-16T09:12:48.068Z,67.63
2022-12-16T09:15:35.753Z,82.00
2022-12-16T09:18:25.755Z,72.80
2022-12-16T09:21:13.281Z,78.70
2022-12-16T09:24:00.291Z,71.57
2022-12-16T09:26:48.747Z,67.87
2022-12-16T09:29:45.194Z,84.43
2022-12-16T09:32:33.835Z,80.10
2022-12-16T09:35:23.571Z,85.97
2022-12-16T09:38:12.808Z,62.63
2022-12-16T09:41:04.972Z,76.33
2022-12-16T09:44:15.072Z,79.77
2022-12-16T09:47:25.958Z,85.13
2022-12-16T09:50:14.201Z,84.50
2022-12-16T09:53:05.314Z,76.67
2022-12-16T09:55:58.465Z,72.13
2022-12-16T09:58:49.487Z,70.63
2022-12-16T10:01:37.578Z,73.73
2022-12-16T10:04:26.667Z,64.90
2022-12-16T10:07:30.455Z,68.57
2022-12-16T10:10:26.492Z,74.17
2022-12-16T10:13:21.631Z,60.77
2022-12-16T10:16:14.970Z,84.90
2022-12-16T10:19:11.448Z,83.63
2022-12-16T10:22:07.960Z,79.17
2022-12-16T10:25:05.613Z,76.20
2022-12-16T10:28:01.972Z,72.17
2022-12-16T10:30:51.091Z,74.70
2022-12-16T10:33:46.193Z,61.80
2022-12-16T10:36:39.213Z,66.87
2022-12-16T10:39:41.072Z,76.80
2022-12-16T10:42:38.645Z,71.60
2022-12-16T10:45:40.141Z,73.07
2022-12-16T10:48:28.590Z,94.63
2022-12-16T10:51:18.129Z,69.30
2022-12-16T10:54:07.256Z,72.30
2022-12-16T10:57:09.623Z,83.30
2022-12-16T10:59:59.580Z,80.43
2022-12-16T11:02:49.036Z,81.73
2022-12-16T11:05:50.119Z,79.13
2022-12-16T11:08:48.975Z,78.67
2022-12-16T11:11:42.937Z,69.30
2022-12-16T11:14:50.372Z,59.27
2022-12-16T11:17:49.043Z,68.97
2022-12-16T11:20:39.075Z,76.27
2022-12-16T11:23:38.807Z,71.33
2022-12-16T11:26:36.720Z,74.10
2022-12-16T11:29:36.609Z,76.33
2022-12-16T11:32:34.269Z,92.30
2022-12-16T11:35:24.463Z,93.87
2022-12-16T11:38:13.448Z,97.00
2022-12-16T11:41:01.460Z,81.80
2022-12-16T11:43:50.972Z,79.83
2022-12-16T11:46:43.573Z,81.67
2022-12-16T11:49:40.807Z,75.50
2022-12-16T11:52:39.205Z,73.67
2022-12-16T11:58:55.288Z,71.43
2022-12-16T12:04:34.435Z,71.53
2022-12-16T12:07:45.303Z,65.30
2022-12-16T12:10:56.446Z,72.80
2022-12-16T12:14:02.376Z,67.33
2022-12-16T12:16:59.861Z,66.67
2022-12-16T12:19:58.872Z,63.63
2022-12-16T12:22:53.611Z,52.63
2022-12-16T12:25:50.608Z,61.20
2022-12-16T12:28:47.800Z,63.43
2022-12-16T12:31:48.799Z,65.95
2022-12-16T12:34:43.417Z,58.57
2022-12-16T12:40:40.237Z,74.40
2022-12-16T12:43:42.474Z,58.93
2022-12-16T12:46:39.652Z,74.07
2022-12-16T12:49:35.658Z,67.83
2022-12-16T12:52:34.027Z,62.70
2022-12-16T12:55:29.424Z,69.10
2022-12-16T12:58:19.924Z,64.33
2022-12-16T13:01:13.349Z,66.13
2022-12-16T13:04:06.658Z,66.50
2022-12-16T13:06:56.222Z,62.80
2022-12-16T13:09:47.079Z,70.40
2022-12-16T13:12:49.011Z,71.20
2022-12-16T13:15:52.768Z,60.95
2022-12-16T13:18:45.344Z,77.23
2022-12-16T13:22:02.789Z,58.83
2022-12-16T13:24:59.352Z,60.17
2022-12-16T13:27:48.350Z,63.50
2022-12-16T13:30:44.105Z,61.93
2022-12-16T13:34:03.974Z,61.57
2022-12-16T13:36:54.320Z,64.57
2022-12-16T13:39:46.320Z,64.67
2022-12-16T13:43:13.237Z,63.97
2022-12-16T13:46:22.636Z,61.87
2022-12-16T13:49:10.355Z,62.30
2022-12-16T13:52:20.534Z,63.50
2022-12-16T13:55:21.422Z,67.27
2022-12-16T13:58:18.209Z,62.77
2022-12-16T14:01:17.356Z,69.03
2022-12-16T14:04:08.074Z,63.83
2022-12-16T14:06:57.276Z,69.90
2022-12-16T14:09:52.572Z,57.93
2022-12-16T14:13:04.475Z,52.43
2022-12-16T14:16:05.054Z,67.40
2022-12-16T14:19:03.695Z,65.43
2022-12-16T14:21:59.658Z,74.63
2022-12-16T14:24:48.380Z,67.20
2022-12-16T14:27:38.931Z,72.90
2022-12-16T14:30:38.329Z,73.30
2022-12-16T14:33:43.131Z,85.87
2022-12-16T14:36:40.293Z,72.65
2022-12-16T14:39:38.735Z,67.13
2022-12-16T14:42:38.297Z,72.60
2022-12-16T14:45:41.094Z,62.10
2022-12-16T14:48:49.450Z,71.27
2022-12-16T14:51:46.932Z,76.17
2022-12-16T14:54:43.791Z,71.00
2022-12-16T14:57:34.358Z,86.07
2022-12-16T15:00:34.460Z,72.70
2022-12-16T15:03:31.915Z,70.27
2022-12-16T15:06:22.073Z,80.17
2022-12-16T15:09:13.017Z,76.70
2022-12-16T15:12:03.006Z,69.30
2022-12-16T15:14:53.798Z,75.77
2022-12-16T15:17:44.568Z,67.17
2022-12-16T15:20:38.941Z,74.47
2022-12-16T15:23:35.606Z,61.20
2022-12-16T15:26:23.830Z,75.73
2022-12-16T15:29:11.466Z,67.40
2022-12-16T15:32:03.384Z,67.03
2022-12-16T15:35:03.923Z,58.77
2022-12-16T15:38:03.625Z,66.70
2022-12-16T15:40:57.283Z,66.80
2022-12-16T15:43:48.650Z,56.40
2022-12-16T15:46:39.210Z,66.40
2022-12-16T15:49:37.890Z,72.60
2022-12-16T15:52:48.987Z,57.77
2022-12-16T15:55:47.388Z,52.17
2022-12-16T15:58:39.938Z,70.00
2022-12-16T16:01:30.942Z,62.37
2022-12-16T16:04:32.508Z,61.50
2022-12-16T16:07:20.153Z,58.17
2022-12-16T16:10:10.486Z,57.87
2022-12-16T16:12:58.201Z,69.40
2022-12-16T16:15:46.235Z,65.97
2022-12-16T16:18:33.781Z,77.50
2022-12-16T16:21:21.167Z,68.83
2022-12-16T16:24:10.872Z,65.27
2022-12-16T16:27:15.841Z,59.17
2022-12-16T16:30:03.240Z,58.20
2022-12-16T16:32:51.406Z,53.33
2022-12-16T16:35:40.929Z,56.00
2022-12-16T16:38:30.411Z,58.83
2022-12-16T16:41:18.109Z,56.50
2022-12-16T16:44:07.285Z,57.27
2022-12-16T16:46:59.319Z,64.43
2022-12-16T16:49:49.723Z,53.50
2022-12-16T16:52:39.561Z,60.77
2022-12-16T16:55:34.167Z,61.30
2022-12-16T16:58:31.089Z,56.85
2022-12-16T17:01:18.916Z,62.53
2022-12-16T17:04:18.489Z,56.20
2022-12-16T17:07:09.005Z,59.90
2022-12-16T17:09:57.773Z,64.63
2022-12-16T17:12:47.734Z,60.47
2022-12-16T17:15:42.713Z,58.27
2022-12-16T17:18:34.752Z,70.53
2022-12-16T17:21:23.975Z,53.10
2022-12-16T17:24:12.313Z,57.85
2022-12-16T17:27:02.777Z,63.90
2022-12-16T17:29:50.766Z,53.70
2022-12-16T17:32:38.652Z,77.97
2022-12-16T17:35:29.783Z,65.20
2022-12-16T17:38:16.844Z,64.10
2022-12-16T17:41:14.409Z,74.17
2022-12-16T17:44:02.685Z,69.87
2022-12-16T17:46:49.962Z,62.83
2022-12-16T17:49:37.972Z,63.90
2022-12-16T17:52:26.395Z,59.93
2022-12-16T17:55:13.790Z,65.60
2022-12-16T17:58:01.773Z,70.87
2022-12-16T18:00:49.034Z,67.20
2022-12-16T18:03:36.876Z,53.67
2022-12-16T18:06:27.571Z,63.23
2022-12-16T18:09:14.948Z,60.70
2022-12-16T18:12:02.746Z,69.87
2022-12-16T18:14:54.484Z,65.60
2022-12-16T18:17:41.908Z,65.67
2022-12-16T18:20:29.692Z,63.87
2022-12-16T18:23:17.035Z,69.50
2022-12-16T18:26:14.763Z,59.83
2022-12-16T18:29:02.128Z,51.47
2022-12-16T18:31:49.722Z,66.47
2022-12-16T18:34:37.792Z,61.17
2022-12-16T18:37:29.335Z,65.80
2022-12-16T18:40:17.151Z,65.63
2022-12-16T18:43:04.910Z,62.23
2022-12-16T18:46:01.116Z,62.33
2022-12-16T18:48:48.821Z,55.83
2022-12-16T18:51:37.266Z,61.40
2022-12-16T18:54:27.434Z,59.37
2022-12-16T18:57:15.019Z,57.10
2022-12-16T19:00:02.647Z,60.87
2022-12-16T19:02:50.010Z,58.73
2022-12-16T19:05:46.735Z,60.70
2022-12-16T19:08:35.125Z,52.70
2022-12-16T19:11:26.152Z,52.20
2022-12-16T19:14:17.490Z,49.73
2022-12-16T19:17:16.945Z,57.30
2022-12-16T19:20:07.381Z,54.80
2022-12-16T19:22:55.250Z,56.17
2022-12-16T19:25:44.555Z,60.30
2022-12-16T19:28:33.093Z,54.43
2022-12-16T19:31:20.832Z,55.40
2022-12-16T19:34:12.716Z,55.03
2022-12-16T19:37:00.635Z,59.23
2022-12-16T19:39:47.949Z,52.03
2022-12-16T19:42:35.577Z,64.73
2022-12-16T19:45:24.676Z,60.97
2022-12-16T19:48:19.946Z,56.10
2022-12-16T19:51:07.414Z,60.20
2022-12-16T19:53:56.183Z,58.63
2022-12-16T19:56:43.989Z,60.23
2022-12-16T19:59:39.497Z,64.37
2022-12-16T20:02:31.082Z,68.43
2022-12-16T20:05:18.961Z,61.13
2022-12-16T20:08:07.134Z,58.93
2022-12-16T20:11:00.572Z,69.07
2022-12-16T20:13:50.555Z,64.97
2022-12-16T20:16:40.736Z,62.97
2022-12-16T20:19:28.378Z,60.83
2022-12-16T20:22:17.260Z,63.37
2022-12-16T20:25:09.523Z,58.03
2022-12-16T20:28:11.956Z,63.53
2022-12-16T20:31:02.044Z,66.63
2022-12-16T20:33:49.566Z,65.17
2022-12-16T20:36:38.501Z,61.23
2022-12-16T20:39:28.408Z,68.80
2022-12-16T20:42:15.735Z,74.37
2022-12-16T20:45:03.065Z,61.30
2022-12-16T20:47:50.581Z,67.23
2022-12-16T20:50:39.172Z,66.03
2022-12-16T20:53:27.177Z,64.57
2022-12-16T20:56:24.035Z,59.47
2022-12-16T20:59:11.893Z,77.97
2022-12-16T21:02:25.193Z,68.97
2022-12-16T21:05:14.612Z,70.28
2022-12-16T21:08:03.225Z,67.57
2022-12-16T21:10:51.657Z,64.70
2022-12-16T21:13:39.324Z,57.23
2022-12-16T21:16:28.513Z,71.17
2022-12-16T21:19:16.242Z,61.17
2022-12-16T21:22:03.723Z,57.27
2022-12-16T21:24:51.763Z,59.13
2022-12-16T21:27:39.312Z,64.90
2022-12-16T21:30:35.451Z,55.70
2022-12-16T21:33:36.576Z,64.53
2022-12-16T21:36:27.580Z,66.00
2022-12-16T21:39:14.961Z,72.07
2022-12-16T21:42:04.788Z,61.80
2022-12-16T21:44:53.461Z,61.07
2022-12-16T21:47:44.010Z,60.07
2022-12-16T21:50:31.555Z,61.07
2022-12-16T21:53:34.204Z,68.13
2022-12-16T21:56:21.184Z,63.30
2022-12-16T21:59:08.472Z,67.37
2022-12-16T22:01:57.296Z,61.90
2022-12-16T22:04:44.944Z,61.40
2022-12-16T22:07:34.917Z,62.83
2022-12-16T22:10:22.768Z,58.23
2022-12-16T22:13:10.245Z,70.13
2022-12-16T22:16:02.726Z,69.67
2022-12-16T22:19:00.802Z,67.93
2022-12-16T22:21:48.235Z,64.10
2022-12-16T22:24:35.767Z,66.53
2022-12-16T22:27:23.051Z,64.97
2022-12-16T22:30:15.985Z,65.73
2022-12-16T22:33:04.539Z,61.47
2022-12-16T22:35:52.415Z,57.20
2022-12-16T22:38:40.031Z,66.07
2022-12-16T22:41:28.930Z,66.60
2022-12-16T22:44:16.234Z,69.03
2022-12-16T22:47:03.705Z,62.60
2022-12-16T22:49:50.963Z,63.90
2022-12-16T22:52:42.721Z,60.65
2022-12-16T22:55:30.310Z,62.23
2022-12-16T22:58:18.048Z,61.47
2022-12-16T23:01:09.451Z,65.27
2022-12-16T23:03:58.203Z,67.97
2022-12-16T23:06:45.928Z,49.67
2022-12-16T23:09:33.500Z,54.63
2022-12-16T23:12:20.683Z,59.73
2022-12-16T23:15:08.065Z,56.63
2022-12-16T23:17:55.536Z,61.93
2022-12-16T23:20:43.831Z,61.03
2022-12-16T23:23:31.636Z,57.67
2022-12-16T23:26:20.735Z,61.63
2022-12-16T23:29:09.993Z,63.30
2022-12-16T23:31:59.751Z,52.30
2022-12-16T23:34:47.168Z,52.33
2022-12-16T23:37:34.506Z,62.40
2022-12-16T23:40:22.529Z,59.75
2022-12-16T23:43:12.988Z,61.97
2022-12-16T23:46:03.906Z,62.33
2022-12-16T23:48:50.880Z,60.57
2022-12-16T23:51:39.301Z,61.70
2022-12-16T23:54:27.411Z,60.60
2022-12-16T23:57:16.796Z,63.70
